This is the latest recevied weather packets stored in our database for station/object KG5CK-1. If no packets are shown the sender has not sent any weather packets the latest 10 day(s).
| Time | Temp. | Humidity | Pressure | Rain* | Wind** | Luminosity | Snow |
|---|---|---|---|---|---|---|---|
| 1777559043 | 16.11° C | 91% | 1010.5 hPa | 0 mm | 1.34 m/s, 58° | - | - |
| 1777558983 | 16.11° C | 91% | 1010.5 hPa | 0 mm | 1.34 m/s, 58° | - | - |
| 1777558923 | 16.11° C | 91% | 1010.5 hPa | 0 mm | 1.34 m/s, 58° | - | - |
| 1777558862 | 16.11° C | 91% | 1010.5 hPa | 0 mm | 1.34 m/s, 58° | - | - |
| 1777558803 | 16.11° C | 91% | 1010.2 hPa | 0 mm | 2.68 m/s, 91° | - | - |
| 1777558743 | 16.11° C | 91% | 1010.2 hPa | 0 mm | 2.68 m/s, 91° | - | - |
| 1777558683 | 16.11° C | 91% | 1010.2 hPa | 0 mm | 2.68 m/s, 91° | - | - |
| 1777558623 | 16.11° C | 91% | 1010.2 hPa | 0 mm | 2.68 m/s, 91° | - | - |
| 1777558563 | 16.11° C | 91% | 1010.2 hPa | 0 mm | 2.68 m/s, 91° | - | - |
| 1777558503 | 16.11° C | 91% | 1010.2 hPa | 0 mm | 3.58 m/s, 138° | - | - |
| 1777558442 | 16.11° C | 91% | 1010.2 hPa | 0 mm | 3.58 m/s, 138° | - | - |
| 1777558383 | 16.11° C | 91% | 1010.2 hPa | 0 mm | 3.58 m/s, 138° | - | - |
| 1777558323 | 16.11° C | 91% | 1010.2 hPa | 0 mm | 3.58 m/s, 138° | - | - |
| 1777558263 | 16.11° C | 91% | 1010.2 hPa | 0 mm | 3.58 m/s, 138° | - | - |
| 1777558203 | 16.11° C | 93% | 1009.8 hPa | 0 mm | 0.89 m/s, 74° | - | - |
| 1777558143 | 16.11° C | 93% | 1009.8 hPa | 0 mm | 0.89 m/s, 74° | - | - |
| 1777558083 | 16.11° C | 93% | 1009.8 hPa | 0 mm | 0.89 m/s, 74° | - | - |
| 1777558023 | 16.11° C | 93% | 1009.8 hPa | 0 mm | 0.89 m/s, 74° | - | - |
| 1777557963 | 16.11° C | 93% | 1009.8 hPa | 0 mm | 0.89 m/s, 74° | - | - |
| 1777557902 | 16.11° C | 93% | 1009.8 hPa | 0 mm | 1.34 m/s, 51° | - | - |
| 1777557843 | 16.11° C | 93% | 1009.8 hPa | 0 mm | 1.34 m/s, 51° | - | - |
| 1777557783 | 16.11° C | 93% | 1009.8 hPa | 0 mm | 1.34 m/s, 51° | - | - |
| 1777557723 | 16.11° C | 93% | 1009.8 hPa | 0 mm | 1.34 m/s, 51° | - | - |
| 1777557663 | 16.11° C | 93% | 1009.8 hPa | 0 mm | 1.34 m/s, 51° | - | - |
| 1777557603 | 16.11° C | 93% | 1009.8 hPa | 0 mm | 1.79 m/s, 78° | - | - |
* Rain latest hour (hover to see other rain measurements)
** Current wind speed in m/s (hover to see current wind gust speed)